createdAt,value
2019-01-10T00:00:57.263Z,1.45
2019-01-10T00:01:56.756Z,1.45
2019-01-10T00:02:57.227Z,1.4
2019-01-10T00:03:57.245Z,1.42
2019-01-10T00:04:57.226Z,1.48
2019-01-10T00:05:56.704Z,1.52
2019-01-10T00:06:56.958Z,1.42
2019-01-10T00:07:56.925Z,1.48
2019-01-10T00:08:56.915Z,1.41
2019-01-10T00:09:56.896Z,1.52
2019-01-10T00:10:56.640Z,1.5
2019-01-10T00:11:56.633Z,1.59
2019-01-10T00:12:57.137Z,1.53
2019-01-10T00:13:56.854Z,1.62
2019-01-10T00:14:56.842Z,1.63
2019-01-10T00:15:57.085Z,1.56
2019-01-10T00:16:56.814Z,1.6
2019-01-10T00:17:56.802Z,1.63
2019-01-10T00:18:56.806Z,1.53
2019-01-10T00:19:56.785Z,1.58
2019-01-10T00:20:57.031Z,1.53
2019-01-10T00:21:57.019Z,1.55
2019-01-10T00:22:56.982Z,1.56
2019-01-10T00:23:56.737Z,1.58
2019-01-10T00:24:56.717Z,1.52
2019-01-10T00:25:56.465Z,1.53
2019-01-10T00:26:56.953Z,1.52
2019-01-10T00:27:56.925Z,1.48
2019-01-10T00:28:56.940Z,1.53
2019-01-10T00:29:56.908Z,1.52
2019-01-10T00:30:56.899Z,1.55
2019-01-10T00:31:56.921Z,1.5
2019-01-10T00:32:56.900Z,1.42
2019-01-10T00:33:56.609Z,1.53
2019-01-10T00:34:56.856Z,1.52
2019-01-10T00:35:56.342Z,1.56
2019-01-10T00:36:56.841Z,1.62
2019-01-10T00:37:56.609Z,1.59
2019-01-10T00:38:56.555Z,1.58
2019-01-10T00:39:56.554Z,1.58
2019-01-10T00:40:56.779Z,1.59
2019-01-10T00:41:56.783Z,1.55
2019-01-10T00:42:56.510Z,1.67
2019-01-10T00:43:56.753Z,1.5
2019-01-10T00:44:56.486Z,1.53
2019-01-10T00:45:56.221Z,1.52
2019-01-10T00:46:56.718Z,1.5
2019-01-10T00:47:56.699Z,1.48
2019-01-10T00:48:56.431Z,1.42
2019-01-10T00:49:56.932Z,1.52
2019-01-10T00:50:56.678Z,1.52
2019-01-10T00:51:56.669Z,1.53
2019-01-10T00:52:56.639Z,1.48
2019-01-10T00:53:56.381Z,1.5
2019-01-10T00:54:56.627Z,1.55
2019-01-10T00:55:56.617Z,1.56
2019-01-10T00:56:56.597Z,1.52
2019-01-10T00:57:56.432Z,1.53
2019-01-10T00:58:56.560Z,1.5
2019-01-10T00:59:56.570Z,1.53
2019-01-10T01:00:56.301Z,1.56
2019-01-10T01:01:56.537Z,1.49
2019-01-10T01:02:56.531Z,1.52
2019-01-10T01:03:56.500Z,1.53
2019-01-10T01:04:56.546Z,1.5
2019-01-10T01:05:56.236Z,1.52
2019-01-10T01:06:56.227Z,1.56
2019-01-10T01:07:56.214Z,1.53
2019-01-10T01:08:56.444Z,1.45
2019-01-10T01:09:56.186Z,1.48
2019-01-10T01:10:56.414Z,1.52
2019-01-10T01:11:57.103Z,1.44
2019-01-10T01:13:03.226Z,1.53
2019-01-10T01:13:56.135Z,1.45
2019-01-10T01:14:56.364Z,1.53
2019-01-10T01:15:56.360Z,1.45
2019-01-10T01:16:56.099Z,1.5
2019-01-10T01:17:56.337Z,1.53
2019-01-10T01:18:56.333Z,1.49
2019-01-10T01:19:57.178Z,1.48
2019-01-10T01:20:56.318Z,1.53
2019-01-10T01:21:56.282Z,1.52
2019-01-10T01:22:56.059Z,1.55
2019-01-10T01:23:56.035Z,1.55
2019-01-10T01:24:56.268Z,1.5
2019-01-10T01:25:55.989Z,1.52
2019-01-10T01:26:55.983Z,1.58
2019-01-10T01:27:56.235Z,1.55
2019-01-10T01:28:55.975Z,1.52
2019-01-10T01:29:55.980Z,1.53
2019-01-10T01:30:55.929Z,1.58
2019-01-10T01:31:56.176Z,1.52
2019-01-10T01:32:56.156Z,1.53
2019-01-10T01:33:56.145Z,1.5
2019-01-10T01:34:59.630Z,1.59
2019-01-10T01:35:56.124Z,1.56
2019-01-10T01:36:55.865Z,1.62
2019-01-10T01:37:56.105Z,1.62
2019-01-10T01:38:56.084Z,1.68
2019-01-10T01:39:56.077Z,1.71
2019-01-10T01:40:56.066Z,1.63
2019-01-10T01:42:10.715Z,1.62
2019-01-10T01:42:55.789Z,1.71
2019-01-10T01:43:55.787Z,1.67
2019-01-10T01:44:56.030Z,1.6
2019-01-10T01:45:55.506Z,1.6
2019-01-10T01:46:55.997Z,1.6
2019-01-10T01:47:55.497Z,1.6
2019-01-10T01:48:55.979Z,1.55
2019-01-10T01:49:55.714Z,1.62
2019-01-10T01:50:55.960Z,1.62
2019-01-10T01:51:55.941Z,1.68
2019-01-10T01:52:58.410Z,1.68
2019-01-10T01:53:55.673Z,1.59
2019-01-10T01:54:55.898Z,1.76
2019-01-10T01:55:55.905Z,1.67
2019-01-10T01:56:55.639Z,1.63
2019-01-10T01:57:55.377Z,1.62
2019-01-10T01:58:55.626Z,1.56
2019-01-10T01:59:55.842Z,1.7
2019-01-10T02:00:55.575Z,1.67
2019-01-10T02:01:55.564Z,1.67
2019-01-10T02:02:55.800Z,1.6
2019-01-10T02:03:55.550Z,1.6
2019-01-10T02:04:55.811Z,1.55
2019-01-10T02:05:55.784Z,1.62
2019-01-10T02:06:55.511Z,1.59
2019-01-10T02:07:55.257Z,1.67
2019-01-10T02:08:55.236Z,1.66
2019-01-10T02:09:55.729Z,1.77
2019-01-10T02:10:55.723Z,1.73
2019-01-10T02:11:55.472Z,1.68
2019-01-10T02:12:55.721Z,1.78
2019-01-10T02:13:55.200Z,1.77
2019-01-10T02:14:55.424Z,1.71
2019-01-10T02:15:55.682Z,1.67
2019-01-10T02:16:55.495Z,1.62
2019-01-10T02:17:55.409Z,1.67
2019-01-10T02:18:55.628Z,1.62
2019-01-10T02:19:55.609Z,1.67
2019-01-10T02:20:58.046Z,1.62
2019-01-10T02:21:55.345Z,1.73
2019-01-10T02:22:55.336Z,1.71
2019-01-10T02:23:55.341Z,1.68
2019-01-10T02:24:55.539Z,1.68
2019-01-10T02:25:55.290Z,1.74
2019-01-10T02:26:55.276Z,1.63
2019-01-10T02:27:55.562Z,1.66
2019-01-10T02:28:55.508Z,1.76
2019-01-10T02:29:55.241Z,1.76
2019-01-10T02:30:55.227Z,1.66
2019-01-10T02:31:55.486Z,1.68
2019-01-10T02:32:55.454Z,1.7
2019-01-10T02:33:55.449Z,1.67
2019-01-10T02:34:55.423Z,1.74
2019-01-10T02:35:55.412Z,1.76
2019-01-10T02:36:55.408Z,1.76
2019-01-10T02:37:55.402Z,1.68
2019-01-10T02:38:55.387Z,1.71
2019-01-10T02:39:55.418Z,1.66
2019-01-10T02:40:55.398Z,1.63
2019-01-10T02:41:55.363Z,1.68
2019-01-10T02:42:55.357Z,1.68
2019-01-10T02:43:55.355Z,1.63
2019-01-10T02:44:55.095Z,1.76
2019-01-10T02:45:55.080Z,1.63
2019-01-10T02:46:55.305Z,1.68
2019-01-10T02:47:55.290Z,1.67
2019-01-10T02:48:55.279Z,1.66
2019-01-10T02:49:54.789Z,1.59
2019-01-10T02:50:59.588Z,1.58
2019-01-10T02:51:55.263Z,1.56
2019-01-10T02:52:55.306Z,1.56
2019-01-10T02:53:55.224Z,1.58
2019-01-10T02:54:54.972Z,1.62
2019-01-10T02:55:55.225Z,1.58
2019-01-10T02:56:55.229Z,1.55
2019-01-10T02:57:54.966Z,1.58
2019-01-10T02:58:55.173Z,1.59
2019-01-10T02:59:55.160Z,1.59
2019-01-10T03:00:55.021Z,1.53
2019-01-10T03:01:55.173Z,1.52
2019-01-10T03:02:55.163Z,1.53
2019-01-10T03:03:55.115Z,1.52
2019-01-10T03:04:55.087Z,1.53
2019-01-10T03:05:55.083Z,1.52
2019-01-10T03:06:54.819Z,1.56
2019-01-10T03:07:54.803Z,1.44
2019-01-10T03:08:55.061Z,1.45
2019-01-10T03:09:55.027Z,1.49
2019-01-10T03:10:55.028Z,1.53
2019-01-10T03:11:54.744Z,1.45
2019-01-10T03:12:54.731Z,1.53
2019-01-10T03:13:54.970Z,1.45
2019-01-10T03:14:54.953Z,1.53
2019-01-10T03:15:54.708Z,1.42
2019-01-10T03:16:54.687Z,1.5
2019-01-10T03:17:54.999Z,1.6
2019-01-10T03:18:54.945Z,1.58
2019-01-10T03:19:54.945Z,1.5
2019-01-10T03:20:57.201Z,1.6
2019-01-10T03:21:55.436Z,1.59
2019-01-10T03:22:54.368Z,1.6
2019-01-10T03:23:54.857Z,1.59
2019-01-10T03:24:54.855Z,1.63
2019-01-10T03:25:54.878Z,1.59
2019-01-10T03:26:54.620Z,1.58
2019-01-10T03:27:54.564Z,1.63
2019-01-10T03:28:54.567Z,1.62
2019-01-10T03:29:54.783Z,1.7
2019-01-10T03:30:54.778Z,1.63
2019-01-10T03:31:54.778Z,1.67
2019-01-10T03:32:54.760Z,1.58
2019-01-10T03:33:54.729Z,1.73
2019-01-10T03:34:54.502Z,1.6
2019-01-10T03:35:54.716Z,1.67
2019-01-10T03:36:54.753Z,1.67
2019-01-10T03:37:54.457Z,1.68
2019-01-10T03:38:54.725Z,1.67
2019-01-10T03:39:54.678Z,1.62
2019-01-10T03:40:54.156Z,1.6
2019-01-10T03:41:54.646Z,1.68
2019-01-10T03:42:54.651Z,1.63
2019-01-10T03:43:54.652Z,1.76
2019-01-10T03:44:54.609Z,1.76
2019-01-10T03:45:54.611Z,1.81
2019-01-10T03:46:54.586Z,1.74
2019-01-10T03:47:54.580Z,1.74
2019-01-10T03:48:54.579Z,1.8
2019-01-10T03:49:54.292Z,1.74
2019-01-10T03:50:54.575Z,1.77
2019-01-10T03:51:54.887Z,1.76
2019-01-10T03:52:54.564Z,1.74
2019-01-10T03:53:54.520Z,1.74
2019-01-10T03:54:54.276Z,1.76
2019-01-10T03:55:54.474Z,1.77
2019-01-10T03:56:54.497Z,1.76
2019-01-10T03:57:54.204Z,1.76
2019-01-10T03:58:54.445Z,1.76
2019-01-10T03:59:55.367Z,1.74
2019-01-10T04:00:54.414Z,1.73
2019-01-10T04:01:54.392Z,1.87
2019-01-10T04:02:54.392Z,1.77
2019-01-10T04:03:54.403Z,1.78
2019-01-10T04:04:54.372Z,1.81
2019-01-10T04:05:54.350Z,1.78
2019-01-10T04:06:54.150Z,1.8
2019-01-10T04:07:54.339Z,1.73
2019-01-10T04:08:54.108Z,1.77
2019-01-10T04:09:54.301Z,1.78
2019-01-10T04:10:54.292Z,1.78
2019-01-10T04:11:54.316Z,1.81
2019-01-10T04:12:54.284Z,1.78
2019-01-10T04:14:02.085Z,1.76
2019-01-10T04:14:54.257Z,1.78
2019-01-10T04:15:54.238Z,1.76
2019-01-10T04:16:54.241Z,1.77
2019-01-10T04:17:54.235Z,1.8
2019-01-10T04:18:54.231Z,1.76
2019-01-10T04:19:55.071Z,1.77
2019-01-10T04:20:53.992Z,1.78
2019-01-10T04:21:56.222Z,1.71
2019-01-10T04:22:53.913Z,1.78
2019-01-10T04:23:54.162Z,1.77
2019-01-10T04:24:53.891Z,1.77
2019-01-10T04:25:53.895Z,1.71
2019-01-10T04:26:54.118Z,1.77
2019-01-10T04:27:53.874Z,1.76
2019-01-10T04:28:54.093Z,1.74
2019-01-10T04:29:54.071Z,1.77
2019-01-10T04:30:54.090Z,1.78
2019-01-10T04:31:54.047Z,1.87
2019-01-10T04:32:54.056Z,1.87
2019-01-10T04:33:54.043Z,1.91
2019-01-10T04:34:53.786Z,1.97
2019-01-10T04:35:54.006Z,1.87
2019-01-10T04:36:53.994Z,1.89
2019-01-10T04:37:54.008Z,1.89
2019-01-10T04:38:53.969Z,1.89
2019-01-10T04:39:53.705Z,1.84
2019-01-10T04:40:53.947Z,1.81
2019-01-10T04:41:53.943Z,1.89
2019-01-10T04:42:53.666Z,1.88
2019-01-10T04:43:53.908Z,1.85
2019-01-10T04:44:53.639Z,1.81
2019-01-10T04:45:53.889Z,1.88
2019-01-10T04:46:53.872Z,1.77
2019-01-10T04:47:53.714Z,1.76
2019-01-10T04:48:53.601Z,1.71
2019-01-10T04:49:53.596Z,1.74
2019-01-10T04:50:53.919Z,1.74
2019-01-10T04:51:53.571Z,1.74
2019-01-10T04:52:53.814Z,1.73
2019-01-10T04:53:53.787Z,1.74
2019-01-10T04:54:58.546Z,1.77
2019-01-10T04:55:53.758Z,1.77
2019-01-10T04:56:53.755Z,1.77
2019-01-10T04:57:55.315Z,1.77
2019-01-10T04:58:53.763Z,1.84
2019-01-10T04:59:53.798Z,1.76
2019-01-10T05:00:53.702Z,1.73
2019-01-10T05:01:53.702Z,1.85
2019-01-10T05:02:53.679Z,1.8
2019-01-10T05:03:53.189Z,1.71
2019-01-10T05:04:53.684Z,1.85
2019-01-10T05:05:53.678Z,1.77
2019-01-10T05:06:53.632Z,1.85
2019-01-10T05:07:53.854Z,1.85
2019-01-10T05:08:53.363Z,1.85
2019-01-10T05:09:53.677Z,1.85
2019-01-10T05:10:53.329Z,1.85
2019-01-10T05:11:53.573Z,1.85
2019-01-10T05:12:53.323Z,1.88
2019-01-10T05:13:53.306Z,1.89
2019-01-10T05:14:53.302Z,1.85
2019-01-10T05:15:53.557Z,1.85
2019-01-10T05:16:53.276Z,1.85
2019-01-10T05:17:53.257Z,1.91
2019-01-10T05:18:53.523Z,1.88
2019-01-10T05:19:53.233Z,1.81
2019-01-10T05:20:53.470Z,1.91
2019-01-10T05:21:53.472Z,1.87
2019-01-10T05:22:55.369Z,1.91
2019-01-10T05:23:53.452Z,1.87
2019-01-10T05:24:53.449Z,1.89
2019-01-10T05:25:53.421Z,1.89
2019-01-10T05:26:53.160Z,1.94
2019-01-10T05:27:53.412Z,1.92
2019-01-10T05:28:53.384Z,2
2019-01-10T05:29:52.884Z,1.95
2019-01-10T05:30:53.348Z,2.04
2019-01-10T05:31:53.114Z,1.89
2019-01-10T05:32:52.876Z,1.89
2019-01-10T05:33:53.325Z,1.94
2019-01-10T05:34:53.069Z,1.99
2019-01-10T05:35:53.402Z,2.02
2019-01-10T05:36:53.037Z,2.08
2019-01-10T05:37:53.327Z,1.99
2019-01-10T05:38:53.053Z,1.97
2019-01-10T05:39:53.248Z,1.97
2019-01-10T05:40:52.992Z,2.06
2019-01-10T05:41:53.224Z,1.95
2019-01-10T05:42:53.214Z,1.95
2019-01-10T05:43:53.225Z,1.89
2019-01-10T05:44:53.002Z,1.99
2019-01-10T05:45:53.182Z,1.88
2019-01-10T05:46:53.539Z,1.91
2019-01-10T05:47:53.149Z,1.92
2019-01-10T05:48:52.925Z,1.92
2019-01-10T05:49:53.150Z,1.89
2019-01-10T05:50:52.906Z,1.88
2019-01-10T05:51:52.881Z,1.92
2019-01-10T05:52:54.910Z,2
2019-01-10T05:53:53.091Z,2
2019-01-10T05:54:53.082Z,1.97
2019-01-10T05:55:52.839Z,1.87
2019-01-10T05:56:52.841Z,1.89
2019-01-10T05:57:52.806Z,1.95
2019-01-10T05:58:53.064Z,1.91
2019-01-10T05:59:52.536Z,1.89
2019-01-10T06:00:52.517Z,2.02
2019-01-10T06:01:53.015Z,2.07
2019-01-10T06:02:53.094Z,2.06
2019-01-10T06:03:57.929Z,2.02
2019-01-10T06:04:52.724Z,2.06
2019-01-10T06:05:53.044Z,1.99
2019-01-10T06:06:52.715Z,2
2019-01-10T06:07:53.779Z,2.07
2019-01-10T06:08:52.957Z,2.07
2019-01-10T06:09:52.670Z,2.1
2019-01-10T06:10:52.404Z,2.13
2019-01-10T06:11:52.625Z,2.08
2019-01-10T06:12:52.632Z,2.02
2019-01-10T06:13:52.974Z,2.06
2019-01-10T06:14:52.849Z,2.06
2019-01-10T06:15:52.579Z,2.1
2019-01-10T06:16:52.828Z,2.07
2019-01-10T06:17:52.821Z,2.04
2019-01-10T06:18:52.561Z,1.97
2019-01-10T06:19:52.805Z,2.06
2019-01-10T06:20:52.795Z,2.06
2019-01-10T06:21:52.504Z,2.04
2019-01-10T06:22:52.761Z,2.06
2019-01-10T06:23:52.747Z,2.07
2019-01-10T06:24:52.232Z,2.07
2019-01-10T06:25:52.768Z,2.07
2019-01-10T06:26:52.453Z,2.07
2019-01-10T06:27:52.749Z,2.08
2019-01-10T06:28:52.179Z,2.06
2019-01-10T06:29:52.434Z,2.15
2019-01-10T06:30:52.419Z,2.08
2019-01-10T06:31:52.403Z,2.11
2019-01-10T06:32:52.644Z,2.08
2019-01-10T06:33:52.659Z,2.14
2019-01-10T06:34:52.610Z,2.07
2019-01-10T06:35:52.359Z,2.08
2019-01-10T06:36:52.590Z,2.04
2019-01-10T06:37:52.321Z,2.06
2019-01-10T06:38:52.309Z,2.07
2019-01-10T06:39:52.299Z,2.06
2019-01-10T06:40:52.287Z,1.99
2019-01-10T06:41:52.264Z,2.02
2019-01-10T06:42:52.265Z,1.94
2019-01-10T06:43:52.255Z,2.04
2019-01-10T06:44:52.516Z,2.08
2019-01-10T06:45:51.986Z,1.95
2019-01-10T06:46:51.980Z,1.92
2019-01-10T06:47:52.482Z,1.99
2019-01-10T06:48:52.445Z,2.04
2019-01-10T06:49:52.416Z,1.91
2019-01-10T06:50:52.163Z,1.94
2019-01-10T06:51:52.171Z,1.94
2019-01-10T06:52:52.408Z,2
2019-01-10T06:53:53.007Z,1.95
2019-01-10T06:55:01.066Z,2.04
2019-01-10T06:55:52.116Z,1.94
2019-01-10T06:56:51.847Z,1.87
2019-01-10T06:57:51.839Z,1.97
2019-01-10T06:58:52.082Z,2.07
2019-01-10T06:59:52.057Z,1.92
2019-01-10T07:00:52.074Z,1.89
2019-01-10T07:01:51.795Z,1.89
2019-01-10T07:02:52.273Z,1.88
2019-01-10T07:03:52.268Z,1.81
2019-01-10T07:04:51.757Z,1.84
2019-01-10T07:05:52.238Z,1.77
2019-01-10T07:06:52.220Z,1.77
2019-01-10T07:08:00.613Z,1.77
2019-01-10T07:08:52.262Z,1.73
2019-01-10T07:09:51.968Z,1.8
2019-01-10T07:10:51.945Z,1.74
2019-01-10T07:11:51.673Z,1.71
2019-01-10T07:12:52.170Z,1.63
2019-01-10T07:13:51.918Z,1.76
2019-01-10T07:14:57.912Z,1.76
2019-01-10T07:15:51.628Z,1.71
2019-01-10T07:16:58.209Z,1.74
2019-01-10T07:17:51.881Z,1.76
2019-01-10T07:18:51.836Z,1.73
2019-01-10T07:19:51.821Z,1.76
2019-01-10T07:20:52.284Z,1.81
2019-01-10T07:21:52.051Z,1.78
2019-01-10T07:22:51.877Z,1.74
2019-01-10T07:23:52.094Z,1.8
2019-01-10T07:24:52.012Z,1.76
2019-01-10T07:25:51.759Z,1.74
2019-01-10T07:26:51.743Z,1.73
2019-01-10T07:27:51.979Z,1.76
2019-01-10T07:28:52.065Z,1.77
2019-01-10T07:29:51.951Z,1.77
2019-01-10T07:30:51.955Z,1.84
2019-01-10T07:31:51.959Z,1.78
2019-01-10T07:32:51.696Z,1.74
2019-01-10T07:33:51.655Z,1.74
2019-01-10T07:34:51.907Z,1.92
2019-01-10T07:35:51.896Z,1.85
2019-01-10T07:36:51.643Z,1.84
2019-01-10T07:37:51.865Z,1.87
2019-01-10T07:38:51.400Z,1.88
2019-01-10T07:39:51.599Z,1.84
2019-01-10T07:40:51.582Z,1.87
2019-01-10T07:41:51.560Z,1.89
2019-01-10T07:42:51.794Z,1.89
2019-01-10T07:43:51.538Z,1.89
2019-01-10T07:44:51.775Z,1.95
2019-01-10T07:45:51.752Z,1.92
2019-01-10T07:46:51.507Z,1.84
2019-01-10T07:47:51.492Z,1.81
2019-01-10T07:48:51.748Z,1.95
2019-01-10T07:49:51.468Z,2
2019-01-10T07:50:51.466Z,1.94
2019-01-10T07:51:51.464Z,1.87
2019-01-10T07:52:51.684Z,1.95
2019-01-10T07:53:56.295Z,1.89
2019-01-10T07:54:51.662Z,1.94
2019-01-10T07:55:51.646Z,2.04
2019-01-10T07:56:51.399Z,2
2019-01-10T07:57:51.404Z,1.95
2019-01-10T07:58:51.700Z,1.94
2019-01-10T07:59:51.354Z,1.91
2019-01-10T08:00:51.095Z,1.92
2019-01-10T08:01:51.371Z,1.87
2019-01-10T08:02:51.346Z,1.94
2019-01-10T08:03:51.321Z,2.04
2019-01-10T08:04:51.310Z,1.89
2019-01-10T08:05:51.039Z,1.94
2019-01-10T08:06:51.256Z,1.99
2019-01-10T08:07:51.499Z,1.95
2019-01-10T08:08:51.530Z,2.06
2019-01-10T08:09:51.262Z,2.02
2019-01-10T08:10:51.485Z,2.04
2019-01-10T08:12:00.078Z,2.06
2019-01-10T08:12:51.211Z,2.06
2019-01-10T08:13:50.942Z,2.06
2019-01-10T08:14:51.181Z,2.04
2019-01-10T08:15:51.419Z,2.06
2019-01-10T08:16:51.413Z,2.11
2019-01-10T08:17:51.143Z,2.06
2019-01-10T08:18:51.559Z,2.04
2019-01-10T08:19:50.870Z,2.06
2019-01-10T08:20:50.867Z,2.06
2019-01-10T08:21:51.513Z,2.07
2019-01-10T08:22:51.095Z,2.08
2019-01-10T08:23:51.071Z,2.07
2019-01-10T08:24:51.905Z,2.08
2019-01-10T08:25:51.056Z,2.04
2019-01-10T08:26:51.276Z,2.02
2019-01-10T08:27:51.038Z,1.94
2019-01-10T08:28:51.014Z,1.99
2019-01-10T08:29:51.246Z,2.02
2019-01-10T08:30:51.265Z,2.06
2019-01-10T08:31:50.995Z,2.02
2019-01-10T08:32:51.209Z,1.99
2019-01-10T08:33:50.962Z,2.08
2019-01-10T08:34:51.368Z,2
2019-01-10T08:35:50.925Z,2.08
2019-01-10T08:36:51.192Z,2.07
2019-01-10T08:37:50.902Z,2.1
2019-01-10T08:38:51.133Z,2.07
2019-01-10T08:39:50.947Z,2.11
2019-01-10T08:40:51.107Z,2.04
2019-01-10T08:41:51.120Z,2.14
2019-01-10T08:42:50.856Z,2.08
2019-01-10T08:43:51.098Z,2.13
2019-01-10T08:44:50.862Z,2.08
2019-01-10T08:45:50.825Z,2.06
2019-01-10T08:46:50.824Z,2.1
2019-01-10T08:47:50.808Z,2.14
2019-01-10T08:48:51.053Z,1.99
2019-01-10T08:49:50.788Z,2.13
2019-01-10T08:50:51.043Z,2.15
2019-01-10T08:51:50.752Z,2.11
2019-01-10T08:52:51.090Z,2.15
2019-01-10T08:53:58.860Z,2.08
2019-01-10T08:54:54.257Z,2.15
2019-01-10T08:55:50.750Z,2.17
2019-01-10T08:56:50.724Z,2.11
2019-01-10T08:57:50.695Z,2.11
2019-01-10T08:58:50.916Z,2.15
2019-01-10T08:59:50.678Z,2.14
2019-01-10T09:00:50.673Z,2.17
2019-01-10T09:01:50.890Z,2.31
2019-01-10T09:02:50.909Z,2.32
2019-01-10T09:03:51.805Z,2.35
2019-01-10T09:04:50.347Z,2.36
2019-01-10T09:05:50.845Z,2.35
2019-01-10T09:06:50.832Z,2.38
2019-01-10T09:07:50.840Z,2.57
2019-01-10T09:08:50.802Z,2.51
2019-01-10T09:09:52.446Z,2.54
2019-01-10T09:10:50.537Z,2.5
2019-01-10T09:11:50.521Z,2.56
2019-01-10T09:12:50.525Z,2.53
2019-01-10T09:13:50.591Z,2.51
2019-01-10T09:14:50.248Z,2.64
2019-01-10T09:15:50.742Z,2.56
2019-01-10T09:16:50.731Z,2.62
2019-01-10T09:17:50.460Z,2.57
2019-01-10T09:18:50.727Z,2.57
2019-01-10T09:19:50.957Z,2.6
2019-01-10T09:20:50.675Z,2.6
2019-01-10T09:21:50.186Z,2.62
2019-01-10T09:22:50.668Z,2.64
2019-01-10T09:23:50.378Z,2.62
2019-01-10T09:24:50.380Z,2.72
2019-01-10T09:25:50.624Z,2.71
2019-01-10T09:26:50.604Z,2.74
2019-01-10T09:27:50.616Z,2.68
2019-01-10T09:28:50.633Z,2.67
2019-01-10T09:29:50.313Z,2.67
2019-01-10T09:30:50.587Z,2.72
2019-01-10T09:31:50.564Z,2.67
2019-01-10T09:32:50.575Z,2.53
2019-01-10T09:33:50.523Z,2.54
2019-01-10T09:34:50.521Z,2.57
2019-01-10T09:35:50.532Z,2.54
2019-01-10T09:36:50.005Z,2.54
2019-01-10T09:37:49.986Z,2.6
2019-01-10T09:38:50.476Z,2.56
2019-01-10T09:39:50.230Z,2.6
2019-01-10T09:40:50.086Z,2.65
2019-01-10T09:41:50.234Z,2.68
2019-01-10T09:42:50.182Z,2.64
2019-01-10T09:43:50.167Z,2.6
2019-01-10T09:44:50.176Z,2.54
2019-01-10T09:45:50.175Z,2.62
2019-01-10T09:46:50.407Z,2.64
2019-01-10T09:47:50.136Z,2.67
2019-01-10T09:48:50.126Z,2.6
2019-01-10T09:49:50.100Z,2.6
2019-01-10T09:50:50.095Z,2.6
2019-01-10T09:51:50.329Z,2.74
2019-01-10T09:52:50.069Z,2.69
2019-01-10T09:53:50.312Z,2.67
2019-01-10T09:54:50.302Z,2.74
2019-01-10T09:55:52.095Z,2.72
2019-01-10T09:56:50.301Z,2.71
2019-01-10T09:57:50.016Z,2.71
2019-01-10T09:58:50.273Z,2.65
2019-01-10T09:59:52.666Z,2.67
2019-01-10T10:00:50.224Z,2.71
2019-01-10T10:01:49.984Z,2.62
2019-01-10T10:02:50.206Z,2.64
2019-01-10T10:03:49.966Z,2.67
2019-01-10T10:04:50.245Z,2.67
2019-01-10T10:05:49.956Z,2.71
2019-01-10T10:06:50.173Z,2.65
2019-01-10T10:07:49.656Z,2.74
2019-01-10T10:08:49.649Z,2.69
2019-01-10T10:09:49.891Z,2.6
2019-01-10T10:10:50.125Z,2.64
2019-01-10T10:11:49.872Z,2.61
2019-01-10T10:12:50.104Z,2.64
2019-01-10T10:13:50.091Z,2.56
2019-01-10T10:14:50.088Z,2.68
2019-01-10T10:15:57.540Z,2.71
2019-01-10T10:16:50.058Z,2.65
2019-01-10T10:17:49.816Z,2.57
2019-01-10T10:18:49.564Z,2.62
2019-01-10T10:19:49.546Z,2.56
2019-01-10T10:20:50.012Z,2.68
2019-01-10T10:21:50.005Z,2.69
2019-01-10T10:22:49.739Z,2.68
2019-01-10T10:23:50.002Z,2.67
2019-01-10T10:24:49.787Z,2.74
2019-01-10T10:25:49.963Z,2.68
2019-01-10T10:26:55.855Z,2.8
2019-01-10T10:27:49.458Z,2.69
2019-01-10T10:28:49.932Z,2.69
2019-01-10T10:29:49.686Z,2.75
2019-01-10T10:30:49.935Z,2.67
2019-01-10T10:31:49.672Z,2.65
2019-01-10T10:32:49.897Z,2.67
2019-01-10T10:33:49.627Z,2.75
2019-01-10T10:34:49.615Z,2.68
2019-01-10T10:35:49.593Z,2.69
2019-01-10T10:36:49.854Z,2.67
2019-01-10T10:37:49.587Z,2.69
2019-01-10T10:38:49.831Z,2.67
2019-01-10T10:39:49.800Z,2.71
2019-01-10T10:40:49.560Z,2.82
2019-01-10T10:41:49.578Z,2.69
2019-01-10T10:42:49.281Z,2.86
2019-01-10T10:43:49.763Z,2.9
2019-01-10T10:44:49.244Z,2.77
2019-01-10T10:45:49.725Z,2.83
2019-01-10T10:46:49.730Z,2.86
2019-01-10T10:47:49.244Z,2.75
2019-01-10T10:48:49.486Z,2.9
2019-01-10T10:49:49.709Z,2.74
2019-01-10T10:50:49.695Z,2.89
2019-01-10T10:51:49.426Z,2.75
2019-01-10T10:52:49.664Z,2.85
2019-01-10T10:53:49.677Z,2.86
2019-01-10T10:54:49.650Z,2.79
2019-01-10T10:55:49.629Z,2.77
2019-01-10T10:56:49.639Z,2.8
2019-01-10T10:57:49.126Z,2.92
2019-01-10T10:58:49.367Z,2.72
2019-01-10T10:59:49.351Z,2.75
2019-01-10T11:00:49.592Z,2.74
2019-01-10T11:01:49.339Z,2.75
2019-01-10T11:02:49.599Z,2.69
2019-01-10T11:03:49.321Z,2.83
2019-01-10T11:04:49.303Z,2.77
2019-01-10T11:05:49.294Z,2.87
2019-01-10T11:06:49.272Z,2.89
2019-01-10T11:07:49.532Z,2.95
2019-01-10T11:08:49.008Z,2.89
2019-01-10T11:09:49.242Z,2.86
2019-01-10T11:10:49.223Z,2.9
2019-01-10T11:11:49.209Z,2.92
2019-01-10T11:12:49.212Z,2.82
2019-01-10T11:13:49.208Z,2.85
2019-01-10T11:14:53.067Z,2.85
2019-01-10T11:15:49.189Z,2.75
2019-01-10T11:16:49.417Z,2.86
2019-01-10T11:17:49.154Z,2.92
2019-01-10T11:18:49.158Z,2.95
2019-01-10T11:19:51.164Z,2.86
2019-01-10T11:20:49.386Z,2.85
2019-01-10T11:21:49.105Z,2.92
2019-01-10T11:22:49.371Z,2.86
2019-01-10T11:23:49.379Z,2.92
2019-01-10T11:24:48.849Z,2.93
2019-01-10T11:25:49.328Z,2.85
2019-01-10T11:26:49.074Z,2.8
2019-01-10T11:27:49.328Z,2.85
2019-01-10T11:28:49.301Z,2.87
2019-01-10T11:29:49.285Z,2.85
2019-01-10T11:30:49.008Z,2.9
2019-01-10T11:31:49.262Z,2.87
2019-01-10T11:32:49.246Z,2.89
2019-01-10T11:33:49.226Z,2.87
2019-01-10T11:34:48.973Z,2.85
2019-01-10T11:35:49.203Z,2.8
2019-01-10T11:36:48.951Z,2.89
2019-01-10T11:37:49.227Z,2.87
2019-01-10T11:38:50.122Z,2.86
2019-01-10T11:39:48.916Z,2.82
2019-01-10T11:40:48.896Z,2.82
2019-01-10T11:41:48.894Z,2.95
2019-01-10T11:42:48.682Z,2.87
2019-01-10T11:43:48.618Z,2.8
2019-01-10T11:44:49.106Z,2.9
2019-01-10T11:45:49.090Z,2.9
2019-01-10T11:46:49.094Z,2.83
2019-01-10T11:47:48.839Z,2.92
2019-01-10T11:48:49.065Z,2.8
2019-01-10T11:49:49.052Z,2.9
2019-01-10T11:50:49.057Z,2.75
2019-01-10T11:51:49.159Z,2.83
2019-01-10T11:52:49.040Z,2.77
2019-01-10T11:53:48.777Z,2.9
2019-01-10T11:54:49.980Z,2.89
2019-01-10T11:55:48.744Z,2.79
2019-01-10T11:56:48.740Z,2.92
2019-01-10T11:57:50.326Z,2.9
2019-01-10T11:58:48.956Z,2.86
2019-01-10T11:59:48.987Z,2.93
2019-01-10T12:00:48.694Z,2.87
2019-01-10T12:01:48.930Z,2.82
2019-01-10T12:02:48.930Z,2.85
2019-01-10T12:03:48.404Z,2.86
2019-01-10T12:04:48.890Z,2.86
2019-01-10T12:05:55.549Z,2.86
2019-01-10T12:06:48.903Z,2.86
2019-01-10T12:07:48.615Z,2.85
2019-01-10T12:08:48.843Z,2.8
2019-01-10T12:09:48.604Z,2.72
2019-01-10T12:10:48.615Z,2.9
2019-01-10T12:11:48.727Z,2.82
2019-01-10T12:12:48.624Z,2.89
2019-01-10T12:13:48.823Z,2.86
2019-01-10T12:14:48.807Z,2.87
2019-01-10T12:15:48.791Z,2.87
2019-01-10T12:16:48.546Z,2.85
2019-01-10T12:17:48.529Z,2.92
2019-01-10T12:18:48.746Z,2.93
2019-01-10T12:19:48.240Z,2.9
2019-01-10T12:20:48.731Z,2.86
2019-01-10T12:21:48.468Z,2.98
2019-01-10T12:22:48.799Z,3
2019-01-10T12:23:48.452Z,3.11
2019-01-10T12:24:48.701Z,3.13
2019-01-10T12:25:48.676Z,3.1
2019-01-10T12:26:48.429Z,3.08
2019-01-10T12:27:48.449Z,3.03
2019-01-10T12:28:48.645Z,3.01
2019-01-10T12:29:48.388Z,3.04
2019-01-10T12:30:48.623Z,2.97
2019-01-10T12:31:48.625Z,3.07
2019-01-10T12:32:48.606Z,3.01
2019-01-10T12:33:48.612Z,3
2019-01-10T12:34:48.328Z,3.05
2019-01-10T12:35:48.318Z,2.97
2019-01-10T12:36:48.307Z,2.92
2019-01-10T12:37:48.302Z,2.97
2019-01-10T12:38:48.282Z,3.01
2019-01-10T12:39:48.286Z,2.93
2019-01-10T12:40:48.265Z,2.86
2019-01-10T12:41:48.257Z,2.87
2019-01-10T12:42:48.250Z,2.85
2019-01-10T12:43:48.245Z,2.87
2019-01-10T12:44:48.306Z,3
2019-01-10T12:45:48.259Z,2.9
2019-01-10T12:46:47.951Z,2.87
2019-01-10T12:47:48.441Z,2.85
2019-01-10T12:48:48.181Z,2.89
2019-01-10T12:49:48.416Z,2.93
2019-01-10T12:50:48.436Z,2.89
2019-01-10T12:51:47.969Z,2.97
2019-01-10T12:52:48.390Z,3.01
2019-01-10T12:53:48.369Z,3.01
2019-01-10T12:54:48.112Z,3.08
2019-01-10T12:55:48.123Z,3.08
2019-01-10T12:56:48.336Z,3.13
2019-01-10T12:57:48.338Z,3.21
2019-01-10T12:58:48.322Z,3.1
2019-01-10T12:59:48.311Z,3.16
2019-01-10T13:00:48.427Z,3.11
2019-01-10T13:01:48.045Z,3.08
2019-01-10T13:02:48.276Z,3.07
2019-01-10T13:03:48.024Z,3.1
2019-01-10T13:04:48.013Z,3.25
2019-01-10T13:05:47.991Z,3.19
2019-01-10T13:06:48.012Z,3.28
2019-01-10T13:07:48.235Z,3.19
2019-01-10T13:08:47.970Z,3.1
2019-01-10T13:09:48.206Z,3.16
2019-01-10T13:10:47.948Z,3.26
2019-01-10T13:11:47.934Z,3.25
2019-01-10T13:12:47.925Z,3.21
2019-01-10T13:13:49.304Z,3.26
2019-01-10T13:14:47.896Z,3.11
2019-01-10T13:15:48.136Z,3.1
2019-01-10T13:16:51.768Z,3.13
2019-01-10T13:17:48.126Z,3.13
2019-01-10T13:18:48.113Z,3.14
2019-01-10T13:19:47.873Z,3.1
2019-01-10T13:20:48.091Z,3.14
2019-01-10T13:21:47.681Z,3.18
2019-01-10T13:22:47.826Z,3.19